Time;durP1;ratioP1;P1;durP2;ratioP2;P2;SDS_P1;SDS_P2;PMS_P1;PMS_P2;Temp;Humidity;BMP_temperature;BMP_pressure;BME280_temperature;BME280_humidity;BME280_pressure;Samples;Min_cycle;Max_cycle;Signal;HPM_P1;HPM_P2
2023/08/14 00:03:19;;;;;;;;;;;23.80;47.40;;;23.12;47.46;101272.00;12243371;19;19923;-89
2023/08/14 00:07:20;;;;;;;;;;;23.70;47.40;;;22.82;47.19;101229.72;12240250;19;19918;-89
2023/08/14 00:11:22;;;;;;;;;;;23.70;47.40;;;22.61;47.31;101212.22;12250501;19;19914;-89
2023/08/14 00:15:43;;;;;;;;;;;23.60;47.40;;;22.95;47.62;101278.13;12254248;19;19918;-89
2023/08/14 00:19:45;;;;;;;;;;;23.50;47.40;;;22.80;47.51;101261.00;12254628;19;20257;-89
2023/08/14 00:23:46;;;;;;;;;;;23.50;47.50;;;22.71;47.52;101300.00;12256061;19;20004;-89
2023/08/14 00:27:48;;;;;;;;;;;23.40;47.60;;;22.70;47.61;101290.34;12252234;19;19923;-89
2023/08/14 00:31:49;;;;;;;;;;;23.30;48.50;;;22.53;47.73;101294.66;12254560;19;19919;-89
2023/08/14 00:35:51;;;;;;;;;;;23.20;48.00;;;22.35;47.51;101259.19;12252557;19;19927;-89
2023/08/14 00:39:54;;;;;;;;;;;23.10;47.90;;;22.36;47.37;101280.34;12254772;19;19911;-89
2023/08/14 00:43:57;;;;;;;;;;;23.10;48.00;;;22.38;47.44;101283.66;12253606;19;19926;-89
2023/08/14 00:47:59;;;;;;;;;;;23.00;48.00;;;22.29;47.98;101288.06;12250174;19;19925;-89
2023/08/14 00:52:01;;;;;;;;;;;23.00;48.00;;;22.27;47.85;101279.38;12253893;19;19919;-89
2023/08/14 00:56:04;;;;;;;;;;;23.00;48.10;;;22.39;47.83;101287.19;12252960;19;19939;-89
2023/08/14 01:00:07;;;;;;;;;;;23.00;48.40;;;22.40;47.76;101292.34;12253219;19;20349;-89
2023/08/14 01:04:09;;;;;;;;;;;23.00;48.20;;;22.41;48.07;101287.84;12253021;19;19930;-89
2023/08/14 01:08:10;;;;;;;;;;;23.00;48.20;;;22.39;47.87;101292.50;12250510;19;20314;-89
2023/08/14 01:13:15;;;;;;;;;;;23.00;48.30;;;22.38;47.79;101291.66;12251531;19;19923;-89
2023/08/14 01:17:18;;;;;;;;;;;23.00;48.20;;;22.29;48.03;101292.56;12245607;19;19923;-89
2023/08/14 01:21:34;;;;;;;;;;;22.90;48.20;;;22.18;47.90;101279.41;12252364;19;19922;-89
2023/08/14 01:25:37;;;;;;;;;;;22.90;48.20;;;22.25;48.21;101296.47;12249507;19;19986;-89
2023/08/14 01:29:38;;;;;;;;;;;22.90;48.10;;;21.99;47.92;101264.38;12251004;19;19935;-89
2023/08/14 01:33:40;;;;;;;;;;;22.90;48.20;;;22.18;48.03;101300.69;12252661;19;20324;-89
2023/08/14 01:38:11;;;;;;;;;;;22.80;48.30;;;22.07;47.87;101294.56;12248544;19;20249;-89
2023/08/14 01:42:17;;;;;;;;;;;22.80;48.10;;;22.10;48.13;101304.06;12252727;19;20328;-89
2023/08/14 01:46:19;;;;;;;;;;;22.70;48.20;;;21.92;47.95;101279.22;12247792;19;19966;-89
2023/08/14 01:50:29;;;;;;;;;;;22.70;48.30;;;21.96;48.20;101286.78;12251212;19;19914;-89
2023/08/14 01:54:33;;;;;;;;;;;22.70;48.30;;;21.99;48.43;101288.31;12249146;19;19926;-89
2023/08/14 01:58:35;;;;;;;;;;;22.60;48.40;;;21.92;48.49;101288.03;12249158;19;19992;-89
2023/08/14 02:02:37;;;;;;;;;;;22.60;48.50;;;21.90;48.33;101292.69;12250157;19;19925;-89
2023/08/14 02:06:38;;;;;;;;;;;22.60;48.40;;;21.88;48.48;101291.97;12246722;19;19951;-89
2023/08/14 02:10:40;;;;;;;;;;;22.50;48.50;;;21.84;48.21;101279.94;12247727;19;19929;-89
2023/08/14 02:14:41;;;;;;;;;;;22.50;48.50;;;21.85;48.54;101284.28;12248313;19;19938;-89
2023/08/14 02:18:43;;;;;;;;;;;22.50;48.60;;;21.49;48.32;101230.09;12244144;19;19952;-89
2023/08/14 02:22:46;;;;;;;;;;;22.50;48.60;;;21.54;48.25;101247.28;12248230;19;20336;-89
2023/08/14 02:26:47;;;;;;;;;;;22.50;48.60;;;21.65;48.29;101273.69;12247459;19;20474;-89
2023/08/14 02:30:49;;;;;;;;;;;22.40;48.60;;;21.43;48.38;101256.25;12247489;19;19914;-89
2023/08/14 02:34:52;;;;;;;;;;;22.30;48.60;;;21.45;48.25;101276.53;12245644;19;20357;-89
2023/08/14 02:38:55;;;;;;;;;;;22.20;48.60;;;21.17;48.27;101248.00;12249657;19;20637;-89
2023/08/14 02:42:58;;;;;;;;;;;22.10;48.60;;;21.32;48.70;101282.09;12246234;19;19923;-89
2023/08/14 02:47:00;;;;;;;;;;;22.00;48.70;;;21.27;48.43;101290.50;12243812;19;19922;-89
2023/08/14 02:51:02;;;;;;;;;;;22.00;48.80;;;21.27;48.76;101298.47;12247980;19;19915;-90
2023/08/14 02:55:04;;;;;;;;;;;21.90;48.80;;;21.24;48.71;101292.59;12246901;19;19914;-91
2023/08/14 02:59:06;;;;;;;;;;;21.90;48.80;;;21.10;48.73;101284.06;12245932;19;20508;-90
2023/08/14 03:03:07;;;;;;;;;;;21.90;48.80;;;20.87;48.56;101248.13;12245863;19;19938;-90
2023/08/14 03:07:09;;;;;;;;;;;21.80;48.80;;;21.10;48.75;101288.53;12245091;19;19974;-90
2023/08/14 03:11:10;;;;;;;;;;;21.80;48.80;;;20.98;48.56;101277.19;12247569;19;19915;-90
2023/08/14 03:15:11;;;;;;;;;;;21.70;48.80;;;21.04;48.84;101291.75;12245853;19;19919;-90
2023/08/14 03:19:13;;;;;;;;;;;21.70;48.80;;;20.95;48.96;101290.75;12246176;19;19935;-90
2023/08/14 03:23:15;;;;;;;;;;;21.60;48.90;;;20.82;48.64;101283.09;12245518;19;19911;-89
2023/08/14 03:27:16;;;;;;;;;;;21.60;48.90;;;20.81;48.90;101286.69;12243686;19;20330;-90
2023/08/14 03:31:18;;;;;;;;;;;21.60;48.90;;;20.62;48.89;101252.16;12245239;19;19915;-89
2023/08/14 03:35:20;;;;;;;;;;;21.50;49.00;;;20.90;48.95;101312.44;12244550;19;19955;-89
2023/08/14 03:39:23;;;;;;;;;;;21.60;49.00;;;20.65;49.21;101265.16;12245022;19;20021;-90
2023/08/14 03:43:25;;;;;;;;;;;21.50;49.10;;;20.84;48.92;101294.38;12248318;19;19989;-90
2023/08/14 03:47:27;;;;;;;;;;;21.50;49.20;;;20.61;48.96;101248.69;12253904;19;19927;-89
2023/08/14 03:51:28;;;;;;;;;;;21.50;49.10;;;20.73;48.83;101279.41;12257708;19;19919;-89
2023/08/14 03:55:30;;;;;;;;;;;21.50;49.40;;;20.81;49.23;101301.78;12255772;19;19911;-90
2023/08/14 03:59:32;;;;;;;;;;;21.50;49.00;;;20.77;49.08;101310.03;12255790;19;19943;-90
2023/08/14 04:03:34;;;;;;;;;;;21.40;49.00;;;20.73;49.18;101291.84;12256261;19;19919;-91
2023/08/14 04:07:35;;;;;;;;;;;21.50;49.20;;;20.59;49.28;101282.47;12251375;19;19929;-90
2023/08/14 04:11:37;;;;;;;;;;;21.50;49.10;;;20.57;48.96;101283.56;12257316;19;19915;-90
2023/08/14 04:15:39;;;;;;;;;;;21.40;49.00;;;20.51;48.92;101283.09;12252319;19;19934;-90
2023/08/14 04:19:41;;;;;;;;;;;21.40;49.10;;;20.52;48.91;101295.41;12251840;19;19923;-89
2023/08/14 04:23:42;;;;;;;;;;;21.30;49.10;;;20.48;49.20;101298.47;12251082;19;19925;-90
2023/08/14 04:27:44;;;;;;;;;;;21.30;49.10;;;20.38;49.07;101274.53;12247203;19;19927;-90
2023/08/14 04:31:46;;;;;;;;;;;21.20;49.20;;;20.41;49.42;101286.72;12246766;19;19921;-90
2023/08/14 04:35:47;;;;;;;;;;;21.20;49.20;;;20.47;49.29;101302.09;12252853;19;19974;-90
2023/08/14 04:39:49;;;;;;;;;;;21.20;49.30;;;20.38;49.00;101292.28;12252213;19;20606;-90
2023/08/14 04:43:50;;;;;;;;;;;21.20;49.60;;;20.34;49.51;101289.91;12251113;19;19915;-90
2023/08/14 04:47:52;;;;;;;;;;;21.20;49.50;;;20.30;49.66;101285.00;12248117;19;19918;-90
2023/08/14 04:51:55;;;;;;;;;;;21.10;49.40;;;20.23;49.49;101279.41;12252977;19;19911;-90
2023/08/14 04:55:56;;;;;;;;;;;21.10;49.40;;;20.28;49.46;101284.28;12248976;19;20576;-90
2023/08/14 04:59:58;;;;;;;;;;;21.10;49.40;;;20.31;49.44;101292.00;12250117;19;19926;-90
2023/08/14 05:04:00;;;;;;;;;;;21.10;49.50;;;20.33;49.42;101301.50;12247996;19;19918;-90
2023/08/14 05:08:02;;;;;;;;;;;21.10;49.60;;;20.33;49.36;101306.81;12247170;19;19915;-90
2023/08/14 05:12:04;;;;;;;;;;;21.10;50.00;;;20.15;49.44;101275.75;12250983;19;19926;-90
2023/08/14 05:16:06;;;;;;;;;;;21.10;49.80;;;20.11;49.45;101270.69;12249458;19;20277;-90
2023/08/14 05:20:09;;;;;;;;;;;21.10;49.90;;;20.29;49.53;101305.38;12250147;19;19918;-90
2023/08/14 05:24:13;;;;;;;;;;;21.10;49.90;;;20.13;49.83;101270.56;12251994;19;19914;-90
2023/08/14 05:28:15;;;;;;;;;;;21.10;50.00;;;20.21;49.99;101286.66;12246974;19;19928;-90
2023/08/14 05:32:17;;;;;;;;;;;21.20;50.30;;;20.22;50.19;101271.56;12253293;19;19919;-90
2023/08/14 05:36:18;;;;;;;;;;;21.20;50.20;;;20.44;49.84;101302.34;12247562;19;19919;-90
2023/08/14 05:40:20;;;;;;;;;;;21.30;50.30;;;20.47;50.04;101304.75;12251246;19;19914;-90
2023/08/14 05:44:22;;;;;;;;;;;21.40;50.60;;;20.67;50.09;101319.78;12250471;19;19915;-86
2023/08/14 05:48:24;;;;;;;;;;;21.40;50.80;;;20.70;50.23;101319.50;12246834;19;20330;-86
2023/08/14 05:52:26;;;;;;;;;;;21.50;50.90;;;20.79;50.39;101325.81;12249584;19;19918;-86
2023/08/14 05:56:27;;;;;;;;;;;21.60;51.10;;;20.67;50.51;101290.59;12248916;19;19949;-86
2023/08/14 06:00:30;;;;;;;;;;;21.70;51.20;;;20.83;50.39;101292.72;12252405;19;19919;-86
2023/08/14 06:04:33;;;;;;;;;;;21.80;51.40;;;21.12;50.73;101314.00;12249791;19;19922;-86
2023/08/14 06:08:35;;;;;;;;;;;22.00;51.80;;;21.38;50.88;101324.06;12243808;19;19915;-86
2023/08/14 06:12:36;;;;;;;;;;;22.20;52.10;;;21.64;51.04;101329.66;12249554;19;20018;-85
2023/08/14 06:16:38;;;;;;;;;;;22.50;52.10;;;21.70;50.81;101310.47;12248605;19;19949;-85
2023/08/14 06:20:40;;;;;;;;;;;22.70;52.00;;;21.93;50.84;101310.13;12246223;19;19976;-85
2023/08/14 06:24:41;;;;;;;;;;;22.90;51.70;;;22.20;50.69;101325.38;12247236;19;19927;-85
2023/08/14 06:28:43;;;;;;;;;;;23.10;52.10;;;22.32;50.98;101313.53;12243909;19;19922;-85
2023/08/14 06:32:45;;;;;;;;;;;23.40;51.80;;;22.54;50.92;101318.47;12247568;19;19922;-86
2023/08/14 06:36:46;;;;;;;;;;;23.60;51.90;;;22.64;50.84;101309.59;12245491;19;19918;-85
2023/08/14 06:40:48;;;;;;;;;;;23.70;51.70;;;22.84;50.72;101329.78;12246538;19;20334;-86
2023/08/14 06:44:50;;;;;;;;;;;23.90;51.50;;;22.84;50.95;101310.31;12246178;19;19919;-85
2023/08/14 06:48:51;;;;;;;;;;;24.00;51.30;;;22.89;51.13;101305.38;12247664;19;19926;-85
2023/08/14 06:52:53;;;;;;;;;;;24.20;51.30;;;23.00;51.06;101288.34;12245346;19;19943;-85
2023/08/14 06:56:54;;;;;;;;;;;24.30;51.30;;;23.21;51.27;101304.88;12244544;19;19934;-85
2023/08/14 07:00:56;;;;;;;;;;;24.40;51.20;;;23.47;51.02;101320.94;12245856;19;20680;-85
2023/08/14 07:04:59;;;;;;;;;;;24.50;51.10;;;23.56;51.18;101322.66;12244428;19;19922;-85
2023/08/14 07:09:00;;;;;;;;;;;24.70;51.60;;;23.67;51.30;101326.91;12247040;19;20347;-85
2023/08/14 07:13:02;;;;;;;;;;;24.80;51.50;;;23.79;50.95;101328.38;12246377;19;19939;-86
2023/08/14 07:17:04;;;;;;;;;;;24.90;51.60;;;23.96;50.85;101320.47;12248391;19;19926;-86
2023/08/14 07:21:05;;;;;;;;;;;25.10;51.40;;;24.08;51.26;101327.19;12243977;19;20283;-86
2023/08/14 07:25:08;;;;;;;;;;;25.10;51.10;;;24.09;50.91;101310.22;12245849;19;19914;-85
2023/08/14 07:29:09;;;;;;;;;;;25.20;51.00;;;24.23;51.08;101311.44;12242822;19;19974;-85
2023/08/14 07:33:13;;;;;;;;;;;25.40;50.80;;;24.39;50.91;101332.03;12239269;19;19951;-84
2023/08/14 07:37:15;;;;;;;;;;;25.50;50.60;;;24.45;51.29;101318.06;12237353;19;19930;-85
2023/08/14 07:41:16;;;;;;;;;;;25.60;51.00;;;24.63;51.42;101317.97;12244150;19;19919;-85
2023/08/14 07:45:18;;;;;;;;;;;25.70;51.10;;;24.67;51.04;101287.25;12242045;19;20361;-84
2023/08/14 07:49:19;;;;;;;;;;;25.90;51.30;;;25.13;51.11;101336.59;12241393;19;20281;-85
2023/08/14 07:53:21;;;;;;;;;;;26.20;51.40;;;25.34;51.43;101325.47;12244316;19;19915;-85
2023/08/14 07:57:23;;;;;;;;;;;26.40;51.50;;;25.40;51.48;101294.53;12237820;19;19918;-85
2023/08/14 08:01:25;;;;;;;;;;;26.70;51.30;;;25.79;51.57;101337.47;12243740;19;19918;-84
2023/08/14 08:05:26;;;;;;;;;;;26.90;51.20;;;25.98;51.50;101338.16;12240594;19;19915;-85
2023/08/14 08:09:27;;;;;;;;;;;27.20;51.10;;;26.29;51.39;101356.97;12242050;19;19925;-84
2023/08/14 08:13:29;;;;;;;;;;;27.40;50.70;;;26.48;51.22;101361.91;12241511;19;19918;-85
2023/08/14 08:17:30;;;;;;;;;;;27.70;50.40;;;26.64;51.43;101354.84;12241356;19;19915;-85
2023/08/14 08:21:33;;;;;;;;;;;27.90;50.00;;;26.83;51.02;101356.25;12243011;19;19914;-85
2023/08/14 08:25:34;;;;;;;;;;;28.00;49.50;;;27.00;51.08;101368.53;12239319;19;19930;-84
2023/08/14 08:29:36;;;;;;;;;;;28.20;49.10;;;27.17;51.03;101361.28;12240792;19;20266;-85
2023/08/14 08:33:37;;;;;;;;;;;28.40;49.60;;;27.27;50.80;101353.81;12253390;19;20347;-85
2023/08/14 08:37:39;;;;;;;;;;;28.50;49.60;;;27.53;50.88;101347.25;12249782;19;19927;-84
2023/08/14 08:41:44;;;;;;;;;;;28.70;49.30;;;27.72;50.79;101360.16;12253019;19;20279;-85
2023/08/14 08:45:49;;;;;;;;;;;28.90;49.00;;;27.90;50.37;101362.53;12250995;19;20333;-85
2023/08/14 08:49:52;;;;;;;;;;;29.10;49.20;;;27.85;50.67;101310.41;12252744;19;19926;-85
2023/08/14 08:53:53;;;;;;;;;;;29.30;49.20;;;28.18;50.67;101340.41;12251708;19;20258;-85
2023/08/14 08:57:57;;;;;;;;;;;29.50;48.00;;;28.34;50.71;101332.16;12249692;19;19915;-85
2023/08/14 09:01:59;;;;;;;;;;;29.60;47.70;;;28.39;50.44;101326.25;12252461;19;19926;-85
2023/08/14 09:06:01;;;;;;;;;;;29.70;47.80;;;28.64;50.59;101335.66;12249487;19;19918;-85
2023/08/14 09:10:03;;;;;;;;;;;29.80;48.40;;;28.79;50.57;101337.50;12250169;19;19939;-85
2023/08/14 09:14:05;;;;;;;;;;;30.00;48.30;;;28.95;50.01;101337.25;12251500;19;19915;-85
2023/08/14 09:18:07;;;;;;;;;;;30.10;47.90;;;29.02;50.19;101316.63;12245163;19;19911;-84
2023/08/14 09:22:10;;;;;;;;;;;30.30;48.30;;;29.21;50.21;101317.03;12249561;19;19915;-84
2023/08/14 09:26:11;;;;;;;;;;;30.40;48.10;;;29.34;49.76;101309.09;12246247;19;19915;-85
2023/08/14 09:30:13;;;;;;;;;;;30.60;48.50;;;29.49;49.91;101311.72;12248950;19;20338;-84
2023/08/14 09:34:17;;;;;;;;;;;30.80;47.70;;;29.66;49.53;101317.66;12248492;19;20215;-85
2023/08/14 09:38:19;;;;;;;;;;;30.80;46.80;;;29.73;49.54;101315.81;12246671;19;19911;-82
2023/08/14 09:42:20;;;;;;;;;;;31.00;47.60;;;29.73;49.73;101302.38;12248338;19;19917;-82
2023/08/14 09:46:23;;;;;;;;;;;31.00;47.60;;;29.93;49.68;101313.28;12245694;19;20272;-82
2023/08/14 09:50:27;;;;;;;;;;;31.20;47.60;;;30.11;49.48;101315.44;12245491;19;19953;-82
2023/08/14 09:54:33;;;;;;;;;;;31.30;47.10;;;30.19;49.16;101316.13;12243761;19;20464;-82
2023/08/14 09:58:35;;;;;;;;;;;31.40;47.30;;;30.29;48.86;101313.06;12240688;19;19923;-82
2023/08/14 10:02:37;;;;;;;;;;;31.50;46.90;;;30.36;48.75;101315.81;12244946;19;19950;-82
2023/08/14 10:06:39;;;;;;;;;;;31.60;46.50;;;30.39;48.57;101308.13;12243029;19;19927;-82
2023/08/14 10:10:40;;;;;;;;;;;31.60;46.20;;;30.41;48.34;101306.09;12246588;19;19926;-82
2023/08/14 10:14:47;;;;;;;;;;;31.70;45.00;;;30.66;48.59;101319.03;12247331;19;19922;-82
2023/08/14 10:18:53;;;;;;;;;;;31.80;46.10;;;30.69;48.08;101307.81;12242550;19;20294;-83
2023/08/14 10:22:55;;;;;;;;;;;31.90;45.70;;;30.79;48.17;101313.66;12248956;19;20329;-82
2023/08/14 10:26:57;;;;;;;;;;;31.90;46.20;;;30.89;47.96;101315.16;12247348;19;20389;-83
2023/08/14 10:31:00;;;;;;;;;;;32.00;43.40;;;30.90;47.74;101324.94;12247539;19;19915;-84
2023/08/14 10:35:02;;;;;;;;;;;31.90;44.30;;;30.91;47.71;101321.19;12248065;19;19996;-85
2023/08/14 10:39:09;;;;;;;;;;;32.00;45.50;;;30.96;47.64;101299.81;12247698;19;20357;-85
2023/08/14 10:43:10;;;;;;;;;;;32.10;44.80;;;31.09;47.57;101319.56;12245438;19;20275;-86
2023/08/14 10:47:12;;;;;;;;;;;32.10;44.90;;;31.25;47.49;101317.50;12244525;19;19911;-87
2023/08/14 10:51:16;;;;;;;;;;;32.20;45.50;;;31.32;47.35;101323.72;12249861;19;20587;-84
2023/08/14 10:55:25;;;;;;;;;;;32.30;44.60;;;31.36;46.77;101313.34;12247843;19;19915;-87
2023/08/14 10:59:28;;;;;;;;;;;32.40;43.10;;;31.35;46.79;101290.06;12246128;19;19918;-85
2023/08/14 11:03:31;;;;;;;;;;;32.40;44.60;;;31.57;46.96;101304.19;12245221;19;19983;-84
2023/08/14 11:07:34;;;;;;;;;;;32.50;45.10;;;31.67;46.63;101300.03;12242692;19;19939;-84
2023/08/14 11:11:36;;;;;;;;;;;32.60;45.10;;;31.74;46.51;101287.34;12244001;19;19921;-84
2023/08/14 11:15:39;;;;;;;;;;;32.70;43.00;;;31.83;46.67;101300.63;12243386;19;19929;-84
2023/08/14 11:19:41;;;;;;;;;;;32.80;44.60;;;31.89;46.27;101291.69;12243706;19;20326;-84
2023/08/14 11:23:43;;;;;;;;;;;32.90;44.00;;;31.93;46.16;101284.84;12246360;19;19930;-84
2023/08/14 11:27:55;;;;;;;;;;;32.90;43.30;;;31.99;46.26;101285.88;12244732;19;19926;-85
2023/08/14 11:31:58;;;;;;;;;;;32.90;44.50;;;32.06;45.77;101270.47;12244352;19;19919;-85
2023/08/14 11:35:59;;;;;;;;;;;33.00;44.20;;;32.13;45.90;101282.91;12245617;19;19915;-85
2023/08/14 11:40:06;;;;;;;;;;;33.10;43.90;;;32.24;46.12;101273.28;12246341;19;20263;-84
2023/08/14 11:44:07;;;;;;;;;;;33.20;44.80;;;32.32;45.53;101259.53;12246734;19;19918;-85
2023/08/14 11:48:09;;;;;;;;;;;33.20;44.00;;;32.40;45.41;101255.75;12242806;19;19915;-85
2023/08/14 11:52:11;;;;;;;;;;;33.30;44.60;;;32.43;45.58;101238.25;12243584;19;19987;-85
2023/08/14 11:56:13;;;;;;;;;;;33.40;42.80;;;32.53;45.18;101250.28;12242010;19;19931;-84
2023/08/14 12:00:14;;;;;;;;;;;33.50;44.00;;;32.60;45.58;101239.44;12244474;19;20003;-85
2023/08/14 12:04:16;;;;;;;;;;;33.60;44.10;;;32.73;45.00;101247.47;12242718;19;19922;-85
2023/08/14 12:08:18;;;;;;;;;;;33.60;40.50;;;32.55;45.20;101212.22;12250769;19;20337;-85
2023/08/14 12:12:20;;;;;;;;;;;33.70;39.30;;;32.76;44.93;101243.50;12252573;19;20295;-85
2023/08/14 12:16:23;;;;;;;;;;;33.70;41.50;;;32.78;45.12;101241.38;12253840;19;19936;-84
2023/08/14 12:20:25;;;;;;;;;;;33.70;43.60;;;32.83;44.71;101250.50;12251666;19;20276;-84
2023/08/14 12:24:26;;;;;;;;;;;33.70;43.50;;;32.68;44.82;101206.72;12251537;19;19930;-84
2023/08/14 12:28:28;;;;;;;;;;;33.70;43.10;;;32.83;44.50;101226.16;12246597;19;19939;-84
2023/08/14 12:32:30;;;;;;;;;;;33.80;43.40;;;32.98;44.40;101239.38;12252138;19;19922;-84
2023/08/14 12:36:31;;;;;;;;;;;33.90;43.60;;;33.02;44.43;101229.78;12248526;19;20266;-85
2023/08/14 12:40:34;;;;;;;;;;;33.90;44.00;;;33.10;44.32;101227.84;12252908;19;19915;-85
2023/08/14 12:44:35;;;;;;;;;;;33.90;43.00;;;33.11;44.45;101214.09;12252909;19;19942;-85
2023/08/14 12:48:37;;;;;;;;;;;34.00;42.90;;;33.20;44.09;101217.34;12245288;19;19915;-84
2023/08/14 12:52:39;;;;;;;;;;;34.00;42.50;;;33.18;44.00;101192.38;12251989;19;20354;-84
2023/08/14 12:56:41;;;;;;;;;;;34.10;40.00;;;33.24;43.98;101196.88;12247589;19;19926;-84
2023/08/14 13:00:42;;;;;;;;;;;34.10;42.40;;;33.33;43.81;101200.97;12248880;19;19919;-84
2023/08/14 13:04:44;;;;;;;;;;;34.10;41.60;;;33.27;43.63;101172.09;12250182;19;19936;-84
2023/08/14 13:08:45;;;;;;;;;;;34.20;39.70;;;33.39;43.60;101181.13;12246352;19;19934;-84
2023/08/14 13:12:47;;;;;;;;;;;34.20;38.70;;;33.45;43.39;101192.94;12248297;19;19915;-85
2023/08/14 13:16:48;;;;;;;;;;;34.20;41.70;;;33.47;43.60;101188.94;12248335;19;19955;-84
2023/08/14 13:20:50;;;;;;;;;;;34.30;42.00;;;33.48;43.10;101187.06;12247570;19;19929;-84
2023/08/14 13:24:51;;;;;;;;;;;34.30;42.10;;;33.52;43.29;101190.97;12246978;19;20239;-84
2023/08/14 13:28:53;;;;;;;;;;;34.30;41.50;;;33.53;43.07;101192.66;12250286;19;19927;-84
2023/08/14 13:32:55;;;;;;;;;;;34.30;41.60;;;33.58;42.74;101192.00;12250027;19;19957;-84
2023/08/14 13:36:57;;;;;;;;;;;34.30;40.70;;;33.58;42.79;101192.00;12247991;19;19922;-84
2023/08/14 13:40:58;;;;;;;;;;;34.30;41.30;;;33.61;42.73;101197.78;12247943;19;19922;-84
2023/08/14 13:45:00;;;;;;;;;;;34.40;40.50;;;33.60;42.53;101200.72;12249302;19;20326;-84
2023/08/14 13:49:06;;;;;;;;;;;34.30;41.40;;;33.55;42.58;101203.28;12249203;19;20006;-84
2023/08/14 13:53:07;;;;;;;;;;;34.30;41.80;;;33.54;42.40;101205.16;12250079;19;20346;-83
2023/08/14 13:57:09;;;;;;;;;;;34.30;41.30;;;33.54;42.16;101190.78;12248026;19;19922;-84
2023/08/14 14:01:10;;;;;;;;;;;34.20;41.90;;;33.52;42.29;101193.69;12245317;19;20319;-84
2023/08/14 14:05:12;;;;;;;;;;;34.20;42.00;;;33.41;42.36;101181.72;12247109;19;19974;-85
2023/08/14 14:09:14;;;;;;;;;;;34.20;41.30;;;33.40;41.85;101182.75;12246463;19;19923;-85
2023/08/14 14:13:15;;;;;;;;;;;34.20;41.60;;;33.37;42.30;101176.97;12245964;19;19969;-85
2023/08/14 14:17:17;;;;;;;;;;;34.10;41.70;;;33.35;42.37;101182.63;12243119;19;20338;-84
2023/08/14 14:21:19;;;;;;;;;;;34.10;42.20;;;33.24;41.88;101151.72;12246406;19;19982;-85
2023/08/14 14:25:20;;;;;;;;;;;33.90;43.10;;;33.24;42.08;101169.81;12247464;19;20337;-86
2023/08/14 14:29:23;;;;;;;;;;;33.90;43.30;;;33.09;41.88;101162.06;12239996;19;19918;-86
2023/08/14 14:33:24;;;;;;;;;;;33.80;43.20;;;33.13;42.34;101173.25;12245793;19;19915;-85
2023/08/14 14:37:26;;;;;;;;;;;33.80;43.40;;;32.95;42.12;101150.50;12246586;19;19929;-85
2023/08/14 14:41:27;;;;;;;;;;;33.70;43.30;;;32.86;42.13;101135.59;12240452;19;20258;-85
2023/08/14 14:45:29;;;;;;;;;;;33.70;43.70;;;32.95;42.01;101168.63;12243629;19;20269;-85
2023/08/14 14:49:30;;;;;;;;;;;33.60;43.80;;;32.88;42.18;101163.25;12244396;19;19915;-85
2023/08/14 14:53:32;;;;;;;;;;;33.50;43.70;;;32.76;42.15;101146.94;12247253;19;19930;-85
2023/08/14 14:57:33;;;;;;;;;;;33.40;44.00;;;32.77;42.39;101172.09;12244629;19;19914;-85
2023/08/14 15:01:35;;;;;;;;;;;33.30;44.20;;;32.75;42.62;101176.91;12248348;19;19919;-85
2023/08/14 15:05:38;;;;;;;;;;;33.20;44.20;;;32.64;42.11;101159.50;12244085;19;20222;-85
2023/08/14 15:09:39;;;;;;;;;;;33.20;44.30;;;32.56;42.34;101157.91;12246999;19;19922;-85
2023/08/14 15:13:41;;;;;;;;;;;33.10;44.30;;;32.44;42.48;101145.31;12245873;19;19922;-86
2023/08/14 15:17:42;;;;;;;;;;;33.00;44.40;;;32.30;42.63;101128.34;12243788;19;19947;-85
2023/08/14 15:21:44;;;;;;;;;;;32.90;44.50;;;32.21;42.62;101127.75;12236510;19;19915;-85
2023/08/14 15:25:46;;;;;;;;;;;32.80;44.40;;;32.15;42.43;101134.03;12246857;19;19918;-85
2023/08/14 15:29:48;;;;;;;;;;;32.70;44.50;;;32.05;42.36;101145.31;12250829;19;19919;-85
2023/08/14 15:33:50;;;;;;;;;;;32.60;44.40;;;31.93;42.68;101145.19;12249243;19;20346;-85
2023/08/14 15:37:51;;;;;;;;;;;32.40;44.40;;;31.81;42.59;101143.34;12242000;19;19926;-85
2023/08/14 15:41:53;;;;;;;;;;;32.30;44.50;;;31.65;42.48;101134.69;12253340;19;20330;-85
2023/08/14 15:46:00;;;;;;;;;;;32.20;44.60;;;31.59;42.50;101137.41;12252614;19;19926;-85
2023/08/14 15:50:03;;;;;;;;;;;32.00;44.70;;;31.54;42.75;101138.03;12258046;19;19915;-84
2023/08/14 15:54:04;;;;;;;;;;;32.00;45.00;;;31.45;42.92;101137.47;12255913;19;20374;-86
2023/08/14 15:58:06;;;;;;;;;;;31.90;45.00;;;31.30;42.68;101140.38;12254371;19;19919;-83
2023/08/14 16:02:09;;;;;;;;;;;31.80;45.10;;;31.17;42.99;101153.09;12256808;19;19922;-84
2023/08/14 16:06:10;;;;;;;;;;;31.60;45.20;;;31.01;42.99;101146.25;12254124;19;19935;-84
2023/08/14 16:10:12;;;;;;;;;;;31.50;45.50;;;30.91;43.07;101156.63;12252347;19;19925;-83
2023/08/14 16:14:14;;;;;;;;;;;31.30;45.30;;;30.74;42.87;101156.22;12256081;19;19915;-83
2023/08/14 16:18:16;;;;;;;;;;;31.10;45.50;;;30.59;42.95;101167.19;12249390;19;20242;-83
2023/08/14 16:22:17;;;;;;;;;;;31.00;45.70;;;30.43;43.13;101168.41;12255599;19;20242;-84
2023/08/14 16:26:19;;;;;;;;;;;30.80;45.60;;;30.32;43.02;101175.22;12251874;19;19923;-84
2023/08/14 16:30:20;;;;;;;;;;;30.70;45.90;;;30.14;43.21;101161.50;12254480;19;19915;-84
2023/08/14 16:34:22;;;;;;;;;;;30.50;46.10;;;30.05;43.49;101166.22;12253696;19;19938;-84
2023/08/14 16:38:23;;;;;;;;;;;30.40;46.30;;;29.93;43.36;101170.53;12248941;19;19914;-84
2023/08/14 16:42:24;;;;;;;;;;;30.20;46.20;;;29.72;43.46;101156.16;12251898;19;19915;-84
2023/08/14 16:46:26;;;;;;;;;;;30.10;46.20;;;29.67;43.69;101155.09;12251010;19;19972;-83
2023/08/14 16:50:27;;;;;;;;;;;30.00;46.50;;;29.38;43.58;101137.31;12250556;19;19946;-83
2023/08/14 16:54:29;;;;;;;;;;;29.80;46.60;;;29.40;43.86;101163.00;12252265;19;19918;-83
2023/08/14 16:58:30;;;;;;;;;;;29.70;46.80;;;29.29;43.88;101166.22;12249464;19;19921;-84
2023/08/14 17:02:31;;;;;;;;;;;29.60;46.80;;;29.26;43.98;101161.25;12253164;19;20330;-84
2023/08/14 17:06:33;;;;;;;;;;;29.50;47.00;;;29.10;43.96;101138.19;12250404;19;19971;-84
2023/08/14 17:10:35;;;;;;;;;;;29.40;47.10;;;28.94;44.05;101136.59;12254742;19;19939;-84
2023/08/14 17:14:37;;;;;;;;;;;29.40;47.20;;;29.05;44.22;101186.34;12254039;19;19923;-83
2023/08/14 17:18:38;;;;;;;;;;;29.30;49.50;;;28.97;44.54;101184.59;12249326;19;19919;-83
2023/08/14 17:22:40;;;;;;;;;;;29.30;48.60;;;28.93;44.43;101177.97;12252412;19;19933;-84
2023/08/14 17:26:42;;;;;;;;;;;29.20;48.40;;;28.92;45.00;101186.19;12252982;19;20797;-84
2023/08/14 17:30:43;;;;;;;;;;;29.10;48.20;;;28.93;44.83;101175.28;12251804;19;20414;-84
2023/08/14 17:34:47;;;;;;;;;;;29.20;48.80;;;28.64;44.86;101139.44;12251065;19;19945;-85
2023/08/14 17:38:49;;;;;;;;;;;29.10;48.70;;;28.52;44.82;101146.38;12246611;19;19949;-83
2023/08/14 17:42:51;;;;;;;;;;;29.10;48.60;;;28.47;45.08;101154.19;12253093;19;19923;-84
2023/08/14 17:46:52;;;;;;;;;;;29.00;49.00;;;28.35;45.02;101153.81;12241228;19;19914;-84
2023/08/14 17:50:54;;;;;;;;;;;28.90;49.00;;;28.48;45.08;101195.31;12250112;19;19932;-84
2023/08/14 17:54:55;;;;;;;;;;;28.80;50.00;;;28.32;45.57;101190.97;12251241;19;19915;-84
2023/08/14 17:58:57;;;;;;;;;;;28.70;49.00;;;28.28;45.34;101192.41;12254644;19;19959;-87
2023/08/14 18:03:00;;;;;;;;;;;28.60;48.60;;;28.15;45.29;101172.41;12256743;19;21514;-86
2023/08/14 18:07:02;;;;;;;;;;;28.60;48.80;;;28.14;45.33;101178.81;12255228;19;20344;-85
2023/08/14 18:11:03;;;;;;;;;;;28.50;49.60;;;28.16;45.91;101186.66;12232487;19;20291;-85